sensor_id;sensor_type;location;lat;lon;timestamp;P1;durP1;ratioP1;P2;durP2;ratioP2
23838;SDS011;12100;44.384;20.272;2022-07-25T00:01:42;5.22;;;4.68;;
23838;SDS011;12100;44.384;20.272;2022-07-25T00:04:08;5.35;;;4.40;;
23838;SDS011;12100;44.384;20.272;2022-07-25T00:06:36;5.32;;;4.82;;
23838;SDS011;12100;44.384;20.272;2022-07-25T00:09:02;7.63;;;5.07;;
23838;SDS011;12100;44.384;20.272;2022-07-25T00:11:29;6.93;;;5.03;;
23838;SDS011;12100;44.384;20.272;2022-07-25T00:13:55;6.22;;;4.72;;
23838;SDS011;12100;44.384;20.272;2022-07-25T00:16:20;5.75;;;5.15;;
23838;SDS011;12100;44.384;20.272;2022-07-25T00:18:46;5.90;;;4.85;;
23838;SDS011;12100;44.384;20.272;2022-07-25T00:21:12;5.88;;;5.28;;
23838;SDS011;12100;44.384;20.272;2022-07-25T00:23:38;5.82;;;5.18;;
23838;SDS011;12100;44.384;20.272;2022-07-25T00:26:04;6.75;;;5.55;;
23838;SDS011;12100;44.384;20.272;2022-07-25T00:28:30;6.45;;;4.93;;
23838;SDS011;12100;44.384;20.272;2022-07-25T00:30:56;5.18;;;4.70;;
23838;SDS011;12100;44.384;20.272;2022-07-25T00:33:22;10.05;;;5.25;;
23838;SDS011;12100;44.384;20.272;2022-07-25T00:35:48;6.00;;;5.18;;
23838;SDS011;12100;44.384;20.272;2022-07-25T00:38:14;6.15;;;5.55;;
23838;SDS011;12100;44.384;20.272;2022-07-25T00:40:40;6.35;;;5.75;;
23838;SDS011;12100;44.384;20.272;2022-07-25T00:43:05;6.07;;;5.47;;
23838;SDS011;12100;44.384;20.272;2022-07-25T00:45:31;5.82;;;5.32;;
23838;SDS011;12100;44.384;20.272;2022-07-25T00:47:57;6.28;;;5.05;;
23838;SDS011;12100;44.384;20.272;2022-07-25T00:50:23;7.32;;;5.82;;
23838;SDS011;12100;44.384;20.272;2022-07-25T00:52:49;6.45;;;5.75;;
23838;SDS011;12100;44.384;20.272;2022-07-25T00:55:15;6.55;;;5.65;;
23838;SDS011;12100;44.384;20.272;2022-07-25T00:57:41;7.13;;;5.60;;
23838;SDS011;12100;44.384;20.272;2022-07-25T01:00:08;7.47;;;6.22;;
23838;SDS011;12100;44.384;20.272;2022-07-25T01:02:37;7.07;;;6.05;;
23838;SDS011;12100;44.384;20.272;2022-07-25T01:05:04;8.32;;;6.60;;
23838;SDS011;12100;44.384;20.272;2022-07-25T01:07:31;7.05;;;6.35;;
23838;SDS011;12100;44.384;20.272;2022-07-25T01:09:57;6.63;;;5.63;;
23838;SDS011;12100;44.384;20.272;2022-07-25T01:12:24;6.05;;;5.50;;
23838;SDS011;12100;44.384;20.272;2022-07-25T01:14:50;7.93;;;6.32;;
23838;SDS011;12100;44.384;20.272;2022-07-25T01:17:15;6.57;;;5.97;;
23838;SDS011;12100;44.384;20.272;2022-07-25T01:19:41;6.55;;;5.95;;
23838;SDS011;12100;44.384;20.272;2022-07-25T01:22:07;6.60;;;6.05;;
23838;SDS011;12100;44.384;20.272;2022-07-25T01:24:34;9.07;;;6.40;;
23838;SDS011;12100;44.384;20.272;2022-07-25T01:27:00;7.70;;;6.53;;
23838;SDS011;12100;44.384;20.272;2022-07-25T01:29:27;7.38;;;6.68;;
23838;SDS011;12100;44.384;20.272;2022-07-25T01:31:53;8.57;;;6.82;;
23838;SDS011;12100;44.384;20.272;2022-07-25T01:34:19;7.47;;;5.65;;
23838;SDS011;12100;44.384;20.272;2022-07-25T01:36:44;6.82;;;6.18;;
23838;SDS011;12100;44.384;20.272;2022-07-25T01:39:10;6.85;;;6.03;;
23838;SDS011;12100;44.384;20.272;2022-07-25T01:41:36;7.70;;;6.90;;
23838;SDS011;12100;44.384;20.272;2022-07-25T01:44:02;7.25;;;6.28;;
23838;SDS011;12100;44.384;20.272;2022-07-25T01:46:28;7.90;;;6.68;;
23838;SDS011;12100;44.384;20.272;2022-07-25T01:48:54;8.27;;;6.60;;
23838;SDS011;12100;44.384;20.272;2022-07-25T01:51:20;7.10;;;6.40;;
23838;SDS011;12100;44.384;20.272;2022-07-25T01:53:46;7.10;;;5.93;;
23838;SDS011;12100;44.384;20.272;2022-07-25T01:56:12;6.55;;;5.68;;
23838;SDS011;12100;44.384;20.272;2022-07-25T01:58:38;7.65;;;6.95;;
23838;SDS011;12100;44.384;20.272;2022-07-25T02:01:04;7.53;;;6.90;;
23838;SDS011;12100;44.384;20.272;2022-07-25T02:03:30;7.78;;;6.70;;
23838;SDS011;12100;44.384;20.272;2022-07-25T02:06:06;8.07;;;6.68;;
23838;SDS011;12100;44.384;20.272;2022-07-25T02:08:32;7.82;;;7.10;;
23838;SDS011;12100;44.384;20.272;2022-07-25T02:10:58;7.93;;;7.10;;
23838;SDS011;12100;44.384;20.272;2022-07-25T02:13:24;7.70;;;6.18;;
23838;SDS011;12100;44.384;20.272;2022-07-25T02:15:50;8.10;;;6.72;;
23838;SDS011;12100;44.384;20.272;2022-07-25T02:18:16;6.70;;;6.10;;
23838;SDS011;12100;44.384;20.272;2022-07-25T02:20:42;6.43;;;5.88;;
23838;SDS011;12100;44.384;20.272;2022-07-25T02:23:09;6.55;;;5.93;;
23838;SDS011;12100;44.384;20.272;2022-07-25T02:25:35;6.38;;;5.65;;
23838;SDS011;12100;44.384;20.272;2022-07-25T02:28:00;7.03;;;6.32;;
23838;SDS011;12100;44.384;20.272;2022-07-25T02:30:26;7.55;;;6.75;;
23838;SDS011;12100;44.384;20.272;2022-07-25T02:32:52;7.50;;;6.68;;
23838;SDS011;12100;44.384;20.272;2022-07-25T02:35:18;7.30;;;6.50;;
23838;SDS011;12100;44.384;20.272;2022-07-25T02:37:45;8.38;;;6.70;;
23838;SDS011;12100;44.384;20.272;2022-07-25T02:40:11;7.40;;;6.70;;
23838;SDS011;12100;44.384;20.272;2022-07-25T02:42:37;7.32;;;6.63;;
23838;SDS011;12100;44.384;20.272;2022-07-25T02:45:03;6.88;;;6.28;;
23838;SDS011;12100;44.384;20.272;2022-07-25T02:47:29;6.90;;;6.28;;
23838;SDS011;12100;44.384;20.272;2022-07-25T02:49:55;7.63;;;6.80;;
23838;SDS011;12100;44.384;20.272;2022-07-25T02:52:21;8.30;;;7.25;;
23838;SDS011;12100;44.384;20.272;2022-07-25T02:54:47;6.70;;;6.10;;
23838;SDS011;12100;44.384;20.272;2022-07-25T02:57:12;7.57;;;6.75;;
23838;SDS011;12100;44.384;20.272;2022-07-25T02:59:38;6.97;;;6.35;;
23838;SDS011;12100;44.384;20.272;2022-07-25T03:02:04;7.32;;;6.60;;
23838;SDS011;12100;44.384;20.272;2022-07-25T03:04:30;8.27;;;6.20;;
23838;SDS011;12100;44.384;20.272;2022-07-25T03:06:56;9.52;;;6.72;;
23838;SDS011;12100;44.384;20.272;2022-07-25T03:09:21;6.95;;;5.97;;
23838;SDS011;12100;44.384;20.272;2022-07-25T03:11:47;9.38;;;7.32;;
23838;SDS011;12100;44.384;20.272;2022-07-25T03:14:14;9.52;;;7.20;;
23838;SDS011;12100;44.384;20.272;2022-07-25T03:16:40;6.82;;;6.13;;
23838;SDS011;12100;44.384;20.272;2022-07-25T03:19:06;8.23;;;6.60;;
23838;SDS011;12100;44.384;20.272;2022-07-25T03:21:34;11.95;;;7.38;;
23838;SDS011;12100;44.384;20.272;2022-07-25T03:24:01;8.48;;;7.13;;
23838;SDS011;12100;44.384;20.272;2022-07-25T03:26:27;7.07;;;6.38;;
23838;SDS011;12100;44.384;20.272;2022-07-25T03:28:53;8.57;;;7.72;;
23838;SDS011;12100;44.384;20.272;2022-07-25T03:31:19;7.20;;;6.60;;
23838;SDS011;12100;44.384;20.272;2022-07-25T03:33:45;6.88;;;6.28;;
23838;SDS011;12100;44.384;20.272;2022-07-25T03:36:11;8.73;;;6.88;;
23838;SDS011;12100;44.384;20.272;2022-07-25T03:38:36;8.32;;;6.97;;
23838;SDS011;12100;44.384;20.272;2022-07-25T03:41:03;8.02;;;7.00;;
23838;SDS011;12100;44.384;20.272;2022-07-25T03:43:29;7.97;;;7.22;;
23838;SDS011;12100;44.384;20.272;2022-07-25T03:45:55;9.05;;;6.50;;
23838;SDS011;12100;44.384;20.272;2022-07-25T03:48:21;8.23;;;7.40;;
23838;SDS011;12100;44.384;20.272;2022-07-25T03:50:47;7.88;;;7.07;;
23838;SDS011;12100;44.384;20.272;2022-07-25T03:53:13;8.63;;;7.82;;
23838;SDS011;12100;44.384;20.272;2022-07-25T03:55:38;9.77;;;7.03;;
23838;SDS011;12100;44.384;20.272;2022-07-25T03:58:04;9.73;;;6.82;;
23838;SDS011;12100;44.384;20.272;2022-07-25T04:00:31;7.40;;;6.65;;
23838;SDS011;12100;44.384;20.272;2022-07-25T04:02:56;7.35;;;6.47;;
23838;SDS011;12100;44.384;20.272;2022-07-25T04:05:23;11.07;;;6.88;;
23838;SDS011;12100;44.384;20.272;2022-07-25T04:07:49;12.35;;;7.13;;
23838;SDS011;12100;44.384;20.272;2022-07-25T04:10:14;15.25;;;6.35;;
23838;SDS011;12100;44.384;20.272;2022-07-25T04:12:40;9.75;;;6.60;;
23838;SDS011;12100;44.384;20.272;2022-07-25T04:15:06;16.08;;;6.75;;
23838;SDS011;12100;44.384;20.272;2022-07-25T04:17:32;14.45;;;6.85;;
23838;SDS011;12100;44.384;20.272;2022-07-25T04:19:58;15.45;;;6.32;;
23838;SDS011;12100;44.384;20.272;2022-07-25T04:22:24;17.98;;;7.43;;
23838;SDS011;12100;44.384;20.272;2022-07-25T04:24:50;14.57;;;6.90;;
23838;SDS011;12100;44.384;20.272;2022-07-25T04:27:16;9.63;;;6.68;;
23838;SDS011;12100;44.384;20.272;2022-07-25T04:29:41;12.77;;;6.47;;
23838;SDS011;12100;44.384;20.272;2022-07-25T04:32:07;8.02;;;7.15;;
23838;SDS011;12100;44.384;20.272;2022-07-25T04:34:33;6.65;;;5.97;;
23838;SDS011;12100;44.384;20.272;2022-07-25T04:36:59;10.75;;;6.20;;
23838;SDS011;12100;44.384;20.272;2022-07-25T04:39:25;8.50;;;6.65;;
23838;SDS011;12100;44.384;20.272;2022-07-25T04:41:50;10.30;;;6.40;;
23838;SDS011;12100;44.384;20.272;2022-07-25T04:44:16;10.80;;;6.10;;
23838;SDS011;12100;44.384;20.272;2022-07-25T04:46:42;8.15;;;6.57;;
23838;SDS011;12100;44.384;20.272;2022-07-25T04:49:08;11.15;;;5.97;;
23838;SDS011;12100;44.384;20.272;2022-07-25T04:51:34;8.75;;;6.47;;
23838;SDS011;12100;44.384;20.272;2022-07-25T04:54:00;9.70;;;6.57;;
23838;SDS011;12100;44.384;20.272;2022-07-25T04:56:25;12.02;;;6.78;;
23838;SDS011;12100;44.384;20.272;2022-07-25T04:58:51;10.52;;;6.13;;
23838;SDS011;12100;44.384;20.272;2022-07-25T05:01:17;10.32;;;6.88;;
23838;SDS011;12100;44.384;20.272;2022-07-25T05:03:43;7.88;;;7.07;;
23838;SDS011;12100;44.384;20.272;2022-07-25T05:06:09;8.32;;;6.30;;
23838;SDS011;12100;44.384;20.272;2022-07-25T05:08:35;10.57;;;6.63;;
23838;SDS011;12100;44.384;20.272;2022-07-25T05:11:01;9.50;;;6.35;;
23838;SDS011;12100;44.384;20.272;2022-07-25T05:13:27;8.57;;;5.93;;
23838;SDS011;12100;44.384;20.272;2022-07-25T05:15:53;9.77;;;6.47;;
23838;SDS011;12100;44.384;20.272;2022-07-25T05:18:18;9.45;;;6.05;;
23838;SDS011;12100;44.384;20.272;2022-07-25T05:20:44;13.82;;;6.47;;
23838;SDS011;12100;44.384;20.272;2022-07-25T05:23:10;13.77;;;6.63;;
23838;SDS011;12100;44.384;20.272;2022-07-25T05:25:36;12.02;;;6.47;;
23838;SDS011;12100;44.384;20.272;2022-07-25T05:28:02;9.70;;;5.75;;
23838;SDS011;12100;44.384;20.272;2022-07-25T05:30:27;15.88;;;6.30;;
23838;SDS011;12100;44.384;20.272;2022-07-25T05:32:53;15.52;;;6.18;;
23838;SDS011;12100;44.384;20.272;2022-07-25T05:35:19;7.00;;;5.78;;
23838;SDS011;12100;44.384;20.272;2022-07-25T05:37:45;13.05;;;6.03;;
23838;SDS011;12100;44.384;20.272;2022-07-25T05:40:10;13.73;;;6.10;;
23838;SDS011;12100;44.384;20.272;2022-07-25T05:42:37;15.43;;;5.97;;
23838;SDS011;12100;44.384;20.272;2022-07-25T05:45:03;8.00;;;5.88;;
23838;SDS011;12100;44.384;20.272;2022-07-25T05:47:30;12.82;;;5.70;;
23838;SDS011;12100;44.384;20.272;2022-07-25T05:49:55;10.50;;;6.22;;
23838;SDS011;12100;44.384;20.272;2022-07-25T05:52:21;10.05;;;5.47;;
23838;SDS011;12100;44.384;20.272;2022-07-25T05:54:47;9.60;;;5.82;;
23838;SDS011;12100;44.384;20.272;2022-07-25T05:57:13;6.40;;;5.40;;
23838;SDS011;12100;44.384;20.272;2022-07-25T05:59:39;8.13;;;5.80;;
23838;SDS011;12100;44.384;20.272;2022-07-25T06:02:05;7.55;;;5.35;;
23838;SDS011;12100;44.384;20.272;2022-07-25T06:04:31;5.85;;;5.25;;
23838;SDS011;12100;44.384;20.272;2022-07-25T06:06:57;8.73;;;5.68;;
23838;SDS011;12100;44.384;20.272;2022-07-25T06:09:23;11.23;;;5.80;;
23838;SDS011;12100;44.384;20.272;2022-07-25T06:11:49;11.20;;;5.45;;
23838;SDS011;12100;44.384;20.272;2022-07-25T06:14:15;8.13;;;4.97;;
23838;SDS011;12100;44.384;20.272;2022-07-25T06:16:41;10.40;;;5.32;;
23838;SDS011;12100;44.384;20.272;2022-07-25T06:19:07;11.43;;;5.55;;
23838;SDS011;12100;44.384;20.272;2022-07-25T06:21:33;16.90;;;6.22;;
23838;SDS011;12100;44.384;20.272;2022-07-25T06:24:00;12.98;;;5.60;;
23838;SDS011;12100;44.384;20.272;2022-07-25T06:26:26;7.80;;;4.95;;
23838;SDS011;12100;44.384;20.272;2022-07-25T06:28:52;4.40;;;4.05;;
23838;SDS011;12100;44.384;20.272;2022-07-25T06:31:19;4.85;;;3.97;;
23838;SDS011;12100;44.384;20.272;2022-07-25T06:33:45;5.65;;;3.70;;
23838;SDS011;12100;44.384;20.272;2022-07-25T06:36:10;4.30;;;3.55;;
23838;SDS011;12100;44.384;20.272;2022-07-25T06:38:36;4.25;;;3.88;;
23838;SDS011;12100;44.384;20.272;2022-07-25T06:41:03;6.70;;;4.00;;
23838;SDS011;12100;44.384;20.272;2022-07-25T06:43:29;4.47;;;4.07;;
23838;SDS011;12100;44.384;20.272;2022-07-25T06:45:55;7.72;;;4.53;;
23838;SDS011;12100;44.384;20.272;2022-07-25T06:48:21;5.50;;;4.20;;
23838;SDS011;12100;44.384;20.272;2022-07-25T06:50:48;5.70;;;3.90;;
23838;SDS011;12100;44.384;20.272;2022-07-25T06:53:14;5.18;;;4.05;;
23838;SDS011;12100;44.384;20.272;2022-07-25T06:55:40;5.38;;;4.10;;
23838;SDS011;12100;44.384;20.272;2022-07-25T06:58:06;5.18;;;4.32;;
23838;SDS011;12100;44.384;20.272;2022-07-25T07:00:32;4.85;;;3.97;;
23838;SDS011;12100;44.384;20.272;2022-07-25T07:02:59;4.75;;;4.25;;
23838;SDS011;12100;44.384;20.272;2022-07-25T07:05:27;6.13;;;4.40;;
23838;SDS011;12100;44.384;20.272;2022-07-25T07:07:54;4.40;;;4.10;;
23838;SDS011;12100;44.384;20.272;2022-07-25T07:10:21;4.50;;;3.95;;
23838;SDS011;12100;44.384;20.272;2022-07-25T07:12:47;4.38;;;3.95;;
23838;SDS011;12100;44.384;20.272;2022-07-25T07:15:13;6.10;;;4.70;;
23838;SDS011;12100;44.384;20.272;2022-07-25T07:17:40;4.35;;;3.58;;
23838;SDS011;12100;44.384;20.272;2022-07-25T07:20:06;5.70;;;3.88;;
23838;SDS011;12100;44.384;20.272;2022-07-25T07:22:42;5.75;;;4.32;;
23838;SDS011;12100;44.384;20.272;2022-07-25T07:25:11;4.47;;;4.07;;
23838;SDS011;12100;44.384;20.272;2022-07-25T07:27:38;4.68;;;4.18;;
23838;SDS011;12100;44.384;20.272;2022-07-25T07:30:04;5.15;;;4.65;;
23838;SDS011;12100;44.384;20.272;2022-07-25T07:32:30;5.05;;;4.55;;
23838;SDS011;12100;44.384;20.272;2022-07-25T07:34:56;6.03;;;4.47;;
23838;SDS011;12100;44.384;20.272;2022-07-25T07:37:22;8.13;;;4.40;;
23838;SDS011;12100;44.384;20.272;2022-07-25T07:39:47;5.22;;;4.72;;
23838;SDS011;12100;44.384;20.272;2022-07-25T07:42:14;6.32;;;4.63;;
23838;SDS011;12100;44.384;20.272;2022-07-25T07:44:39;6.97;;;4.28;;
23838;SDS011;12100;44.384;20.272;2022-07-25T07:47:05;4.88;;;4.47;;
23838;SDS011;12100;44.384;20.272;2022-07-25T07:49:31;5.32;;;4.50;;
23838;SDS011;12100;44.384;20.272;2022-07-25T07:51:57;5.20;;;4.70;;
23838;SDS011;12100;44.384;20.272;2022-07-25T07:54:23;6.93;;;4.68;;
23838;SDS011;12100;44.384;20.272;2022-07-25T07:57:07;6.18;;;4.20;;
23838;SDS011;12100;44.384;20.272;2022-07-25T07:59:33;5.25;;;4.82;;
23838;SDS011;12100;44.384;20.272;2022-07-25T08:01:58;4.93;;;4.43;;
23838;SDS011;12100;44.384;20.272;2022-07-25T08:04:24;5.22;;;4.70;;
23838;SDS011;12100;44.384;20.272;2022-07-25T08:06:50;4.93;;;4.43;;
23838;SDS011;12100;44.384;20.272;2022-07-25T08:09:16;5.25;;;4.10;;
23838;SDS011;12100;44.384;20.272;2022-07-25T08:11:41;5.55;;;4.28;;
23838;SDS011;12100;44.384;20.272;2022-07-25T08:14:07;5.55;;;4.38;;
23838;SDS011;12100;44.384;20.272;2022-07-25T08:16:33;5.80;;;4.25;;
23838;SDS011;12100;44.384;20.272;2022-07-25T08:18:59;5.53;;;4.22;;
23838;SDS011;12100;44.384;20.272;2022-07-25T08:21:25;8.60;;;4.60;;
23838;SDS011;12100;44.384;20.272;2022-07-25T08:23:50;6.07;;;4.47;;
23838;SDS011;12100;44.384;20.272;2022-07-25T08:26:16;5.70;;;4.65;;
23838;SDS011;12100;44.384;20.272;2022-07-25T08:28:42;4.82;;;4.32;;
23838;SDS011;12100;44.384;20.272;2022-07-25T08:31:08;7.90;;;4.45;;
23838;SDS011;12100;44.384;20.272;2022-07-25T08:33:34;5.53;;;4.70;;
23838;SDS011;12100;44.384;20.272;2022-07-25T08:36:00;7.10;;;4.30;;
23838;SDS011;12100;44.384;20.272;2022-07-25T08:38:26;5.88;;;4.32;;
23838;SDS011;12100;44.384;20.272;2022-07-25T08:40:53;4.80;;;4.32;;
23838;SDS011;12100;44.384;20.272;2022-07-25T08:43:20;6.00;;;4.47;;
23838;SDS011;12100;44.384;20.272;2022-07-25T08:45:49;4.55;;;4.05;;
23838;SDS011;12100;44.384;20.272;2022-07-25T08:48:18;7.75;;;4.72;;
23838;SDS011;12100;44.384;20.272;2022-07-25T08:50:46;4.45;;;4.03;;
23838;SDS011;12100;44.384;20.272;2022-07-25T08:53:13;5.75;;;4.45;;
23838;SDS011;12100;44.384;20.272;2022-07-25T08:55:40;5.78;;;4.10;;
23838;SDS011;12100;44.384;20.272;2022-07-25T08:58:09;4.70;;;4.30;;
23838;SDS011;12100;44.384;20.272;2022-07-25T09:00:36;4.63;;;3.50;;
23838;SDS011;12100;44.384;20.272;2022-07-25T09:03:03;4.07;;;3.50;;
23838;SDS011;12100;44.384;20.272;2022-07-25T09:05:30;3.75;;;3.38;;
23838;SDS011;12100;44.384;20.272;2022-07-25T09:08:04;4.80;;;3.63;;
23838;SDS011;12100;44.384;20.272;2022-07-25T09:10:35;4.10;;;3.80;;
23838;SDS011;12100;44.384;20.272;2022-07-25T09:13:05;4.30;;;3.80;;
23838;SDS011;12100;44.384;20.272;2022-07-25T09:15:41;6.97;;;4.07;;
23838;SDS011;12100;44.384;20.272;2022-07-25T09:18:17;5.45;;;3.60;;
23838;SDS011;12100;44.384;20.272;2022-07-25T09:20:47;12.13;;;3.90;;
23838;SDS011;12100;44.384;20.272;2022-07-25T09:26:08;6.20;;;3.63;;
23838;SDS011;12100;44.384;20.272;2022-07-25T09:28:39;5.50;;;3.85;;
23838;SDS011;12100;44.384;20.272;2022-07-25T09:31:10;4.30;;;3.75;;
23838;SDS011;12100;44.384;20.272;2022-07-25T09:33:52;3.72;;;3.28;;
23838;SDS011;12100;44.384;20.272;2022-07-25T09:36:24;4.43;;;4.00;;
23838;SDS011;12100;44.384;20.272;2022-07-25T09:38:56;4.28;;;3.88;;
23838;SDS011;12100;44.384;20.272;2022-07-25T09:41:40;4.05;;;3.75;;
23838;SDS011;12100;44.384;20.272;2022-07-25T09:44:16;4.10;;;3.70;;
23838;SDS011;12100;44.384;20.272;2022-07-25T09:46:41;5.85;;;3.97;;
23838;SDS011;12100;44.384;20.272;2022-07-25T09:49:07;4.68;;;4.28;;
23838;SDS011;12100;44.384;20.272;2022-07-25T09:51:33;3.90;;;3.60;;
23838;SDS011;12100;44.384;20.272;2022-07-25T09:54:01;5.25;;;3.53;;
23838;SDS011;12100;44.384;20.272;2022-07-25T09:56:27;4.40;;;4.00;;
23838;SDS011;12100;44.384;20.272;2022-07-25T09:58:53;5.10;;;4.45;;
23838;SDS011;12100;44.384;20.272;2022-07-25T10:01:21;4.93;;;4.53;;
23838;SDS011;12100;44.384;20.272;2022-07-25T10:06:33;4.97;;;4.20;;
23838;SDS011;12100;44.384;20.272;2022-07-25T10:09:13;4.53;;;4.00;;
23838;SDS011;12100;44.384;20.272;2022-07-25T10:11:40;4.43;;;4.05;;
23838;SDS011;12100;44.384;20.272;2022-07-25T10:14:25;4.40;;;4.00;;
23838;SDS011;12100;44.384;20.272;2022-07-25T10:16:51;3.90;;;3.60;;
23838;SDS011;12100;44.384;20.272;2022-07-25T10:19:33;4.78;;;3.75;;
23838;SDS011;12100;44.384;20.272;2022-07-25T10:22:00;3.90;;;3.60;;
23838;SDS011;12100;44.384;20.272;2022-07-25T10:24:31;5.40;;;4.15;;
23838;SDS011;12100;44.384;20.272;2022-07-25T10:27:04;4.75;;;4.18;;
23838;SDS011;12100;44.384;20.272;2022-07-25T10:29:33;5.03;;;3.80;;
23838;SDS011;12100;44.384;20.272;2022-07-25T10:32:09;5.43;;;3.90;;
23838;SDS011;12100;44.384;20.272;2022-07-25T10:34:37;3.88;;;3.58;;
23838;SDS011;12100;44.384;20.272;2022-07-25T10:39:38;4.22;;;3.80;;
23838;SDS011;12100;44.384;20.272;2022-07-25T10:42:05;4.05;;;3.65;;
23838;SDS011;12100;44.384;20.272;2022-07-25T10:44:41;4.70;;;4.13;;
23838;SDS011;12100;44.384;20.272;2022-07-25T10:47:12;5.15;;;3.72;;
23838;SDS011;12100;44.384;20.272;2022-07-25T10:49:41;6.22;;;4.22;;
23838;SDS011;12100;44.384;20.272;2022-07-25T10:52:15;4.30;;;3.90;;
23838;SDS011;12100;44.384;20.272;2022-07-25T10:54:53;4.50;;;4.18;;
23838;SDS011;12100;44.384;20.272;2022-07-25T10:57:23;4.50;;;3.58;;
23838;SDS011;12100;44.384;20.272;2022-07-25T10:59:49;5.28;;;3.67;;
23838;SDS011;12100;44.384;20.272;2022-07-25T11:02:15;5.78;;;4.43;;
23838;SDS011;12100;44.384;20.272;2022-07-25T11:04:56;4.35;;;3.78;;
23838;SDS011;12100;44.384;20.272;2022-07-25T11:07:24;4.35;;;3.72;;
23838;SDS011;12100;44.384;20.272;2022-07-25T11:09:56;4.82;;;4.35;;
23838;SDS011;12100;44.384;20.272;2022-07-25T11:12:23;4.93;;;3.88;;
23838;SDS011;12100;44.384;20.272;2022-07-25T11:14:49;5.82;;;4.20;;
23838;SDS011;12100;44.384;20.272;2022-07-25T11:17:17;4.18;;;3.85;;
23838;SDS011;12100;44.384;20.272;2022-07-25T11:19:56;7.15;;;4.32;;
23838;SDS011;12100;44.384;20.272;2022-07-25T11:22:24;3.92;;;3.42;;
23838;SDS011;12100;44.384;20.272;2022-07-25T11:24:50;4.78;;;4.03;;
23838;SDS011;12100;44.384;20.272;2022-07-25T11:27:29;5.45;;;3.92;;
23838;SDS011;12100;44.384;20.272;2022-07-25T11:30:09;4.65;;;3.85;;
23838;SDS011;12100;44.384;20.272;2022-07-25T11:35:14;6.03;;;3.72;;
23838;SDS011;12100;44.384;20.272;2022-07-25T11:37:41;4.38;;;3.65;;
23838;SDS011;12100;44.384;20.272;2022-07-25T11:40:08;5.75;;;3.80;;
23838;SDS011;12100;44.384;20.272;2022-07-25T11:43:17;3.90;;;3.20;;
23838;SDS011;12100;44.384;20.272;2022-07-25T11:45:28;5.03;;;3.42;;
23838;SDS011;12100;44.384;20.272;2022-07-25T11:50:35;4.10;;;3.42;;
23838;SDS011;12100;44.384;20.272;2022-07-25T11:53:06;5.53;;;3.42;;
23838;SDS011;12100;44.384;20.272;2022-07-25T11:55:35;3.95;;;3.58;;
23838;SDS011;12100;44.384;20.272;2022-07-25T11:58:05;4.72;;;3.85;;
23838;SDS011;12100;44.384;20.272;2022-07-25T12:00:35;3.83;;;3.13;;
23838;SDS011;12100;44.384;20.272;2022-07-25T12:03:06;3.83;;;3.40;;
23838;SDS011;12100;44.384;20.272;2022-07-25T12:05:33;4.10;;;3.70;;
23838;SDS011;12100;44.384;20.272;2022-07-25T12:08:06;9.75;;;3.20;;
23838;SDS011;12100;44.384;20.272;2022-07-25T12:10:37;7.40;;;3.65;;
23838;SDS011;12100;44.384;20.272;2022-07-25T12:13:04;7.68;;;4.10;;
23838;SDS011;12100;44.384;20.272;2022-07-25T12:15:36;4.45;;;3.58;;
23838;SDS011;12100;44.384;20.272;2022-07-25T12:18:04;4.18;;;3.75;;
23838;SDS011;12100;44.384;20.272;2022-07-25T12:20:37;22.20;;;5.20;;
23838;SDS011;12100;44.384;20.272;2022-07-25T12:23:05;7.53;;;3.50;;
23838;SDS011;12100;44.384;20.272;2022-07-25T12:25:34;4.18;;;2.92;;
23838;SDS011;12100;44.384;20.272;2022-07-25T12:28:01;4.95;;;2.92;;
23838;SDS011;12100;44.384;20.272;2022-07-25T12:30:28;3.50;;;3.20;;
23838;SDS011;12100;44.384;20.272;2022-07-25T12:32:55;3.50;;;3.08;;
23838;SDS011;12100;44.384;20.272;2022-07-25T12:35:21;2.75;;;2.47;;
23838;SDS011;12100;44.384;20.272;2022-07-25T12:37:47;3.10;;;2.78;;
23838;SDS011;12100;44.384;20.272;2022-07-25T12:40:14;10.10;;;3.50;;
23838;SDS011;12100;44.384;20.272;2022-07-25T12:42:41;3.85;;;2.80;;
23838;SDS011;12100;44.384;20.272;2022-07-25T12:45:07;3.67;;;3.00;;
23838;SDS011;12100;44.384;20.272;2022-07-25T12:47:34;5.97;;;3.03;;
23838;SDS011;12100;44.384;20.272;2022-07-25T12:50:01;3.25;;;2.72;;
23838;SDS011;12100;44.384;20.272;2022-07-25T12:52:27;3.20;;;2.90;;
23838;SDS011;12100;44.384;20.272;2022-07-25T12:54:53;6.18;;;3.00;;
23838;SDS011;12100;44.384;20.272;2022-07-25T12:57:18;3.35;;;3.00;;
23838;SDS011;12100;44.384;20.272;2022-07-25T12:59:45;5.40;;;3.00;;
23838;SDS011;12100;44.384;20.272;2022-07-25T13:02:11;2.88;;;2.67;;
23838;SDS011;12100;44.384;20.272;2022-07-25T13:04:37;4.57;;;2.90;;
23838;SDS011;12100;44.384;20.272;2022-07-25T13:07:03;3.10;;;2.80;;
23838;SDS011;12100;44.384;20.272;2022-07-25T13:09:29;3.00;;;2.70;;
23838;SDS011;12100;44.384;20.272;2022-07-25T13:11:55;3.28;;;2.97;;
23838;SDS011;12100;44.384;20.272;2022-07-25T13:14:21;3.08;;;2.80;;
23838;SDS011;12100;44.384;20.272;2022-07-25T13:16:47;3.47;;;3.17;;
23838;SDS011;12100;44.384;20.272;2022-07-25T13:19:13;4.10;;;2.90;;
23838;SDS011;12100;44.384;20.272;2022-07-25T13:21:40;4.13;;;2.80;;
23838;SDS011;12100;44.384;20.272;2022-07-25T13:24:07;4.40;;;3.30;;
23838;SDS011;12100;44.384;20.272;2022-07-25T13:26:34;4.60;;;3.33;;
23838;SDS011;12100;44.384;20.272;2022-07-25T13:29:00;2.78;;;2.47;;
23838;SDS011;12100;44.384;20.272;2022-07-25T13:31:26;4.20;;;3.05;;
23838;SDS011;12100;44.384;20.272;2022-07-25T13:33:52;3.22;;;2.92;;
23838;SDS011;12100;44.384;20.272;2022-07-25T13:36:18;2.70;;;2.47;;
23838;SDS011;12100;44.384;20.272;2022-07-25T13:38:44;3.55;;;2.90;;
23838;SDS011;12100;44.384;20.272;2022-07-25T13:41:12;3.00;;;2.70;;
23838;SDS011;12100;44.384;20.272;2022-07-25T13:43:38;3.25;;;2.95;;
23838;SDS011;12100;44.384;20.272;2022-07-25T13:46:04;5.00;;;3.22;;
23838;SDS011;12100;44.384;20.272;2022-07-25T13:48:30;5.85;;;2.97;;
23838;SDS011;12100;44.384;20.272;2022-07-25T13:50:56;4.10;;;2.58;;
23838;SDS011;12100;44.384;20.272;2022-07-25T13:53:23;4.25;;;2.83;;
23838;SDS011;12100;44.384;20.272;2022-07-25T13:55:49;2.83;;;2.60;;
23838;SDS011;12100;44.384;20.272;2022-07-25T13:58:15;3.35;;;3.00;;
23838;SDS011;12100;44.384;20.272;2022-07-25T14:00:41;2.65;;;2.25;;
23838;SDS011;12100;44.384;20.272;2022-07-25T14:03:07;3.20;;;2.70;;
23838;SDS011;12100;44.384;20.272;2022-07-25T14:05:33;2.72;;;2.53;;
23838;SDS011;12100;44.384;20.272;2022-07-25T14:07:59;6.47;;;2.85;;
23838;SDS011;12100;44.384;20.272;2022-07-25T14:10:25;3.05;;;2.65;;
23838;SDS011;12100;44.384;20.272;2022-07-25T14:12:51;3.80;;;2.45;;
23838;SDS011;12100;44.384;20.272;2022-07-25T14:15:17;3.22;;;2.35;;
23838;SDS011;12100;44.384;20.272;2022-07-25T14:17:43;2.72;;;2.38;;
23838;SDS011;12100;44.384;20.272;2022-07-25T14:20:09;3.00;;;2.80;;
23838;SDS011;12100;44.384;20.272;2022-07-25T14:22:36;4.10;;;2.63;;
23838;SDS011;12100;44.384;20.272;2022-07-25T14:25:03;4.90;;;2.50;;
23838;SDS011;12100;44.384;20.272;2022-07-25T14:27:30;4.47;;;2.50;;
23838;SDS011;12100;44.384;20.272;2022-07-25T14:29:57;2.85;;;2.38;;
23838;SDS011;12100;44.384;20.272;2022-07-25T14:32:23;3.22;;;2.72;;
23838;SDS011;12100;44.384;20.272;2022-07-25T14:34:49;3.00;;;2.70;;
23838;SDS011;12100;44.384;20.272;2022-07-25T14:37:16;4.15;;;2.70;;
23838;SDS011;12100;44.384;20.272;2022-07-25T14:39:43;2.70;;;2.50;;
23838;SDS011;12100;44.384;20.272;2022-07-25T14:42:09;4.00;;;2.50;;
23838;SDS011;12100;44.384;20.272;2022-07-25T14:44:38;4.00;;;2.72;;
23838;SDS011;12100;44.384;20.272;2022-07-25T14:47:05;3.65;;;2.50;;